sensor_id;sensor_type;location;lat;lon;timestamp;pressure;altitude;pressure_sealevel;temperature;humidity
20971;BME280;10644;48.834;10.088;2023-11-21T00:00:31;96098.66;;;12.33;62.99
20971;BME280;10644;48.834;10.088;2023-11-21T00:02:56;96095.25;;;12.32;62.72
20971;BME280;10644;48.834;10.088;2023-11-21T00:05:22;96088.69;;;12.28;62.78
20971;BME280;10644;48.834;10.088;2023-11-21T00:07:50;96085.00;;;12.32;62.74
20971;BME280;10644;48.834;10.088;2023-11-21T00:10:16;96087.50;;;12.21;62.82
20971;BME280;10644;48.834;10.088;2023-11-21T00:12:42;96084.06;;;12.33;62.71
20971;BME280;10644;48.834;10.088;2023-11-21T00:15:08;96082.50;;;12.43;62.65
20971;BME280;10644;48.834;10.088;2023-11-21T00:17:37;96080.41;;;12.48;61.90
20971;BME280;10644;48.834;10.088;2023-11-21T00:20:04;96077.31;;;12.56;61.97
20971;BME280;10644;48.834;10.088;2023-11-21T00:22:32;96073.69;;;12.58;61.89
20971;BME280;10644;48.834;10.088;2023-11-21T00:24:58;96073.47;;;12.61;61.92
20971;BME280;10644;48.834;10.088;2023-11-21T00:27:23;96075.81;;;12.64;61.64
20971;BME280;10644;48.834;10.088;2023-11-21T00:29:48;96064.72;;;12.64;61.76
20971;BME280;10644;48.834;10.088;2023-11-21T00:32:14;96064.81;;;12.62;61.74
20971;BME280;10644;48.834;10.088;2023-11-21T00:34:39;96057.94;;;12.63;62.37
20971;BME280;10644;48.834;10.088;2023-11-21T00:37:05;96072.09;;;12.68;62.37
20971;BME280;10644;48.834;10.088;2023-11-21T00:39:30;96074.78;;;12.67;62.35
20971;BME280;10644;48.834;10.088;2023-11-21T00:41:55;96070.25;;;12.70;62.63
20971;BME280;10644;48.834;10.088;2023-11-21T00:44:21;96071.53;;;12.76;62.33
20971;BME280;10644;48.834;10.088;2023-11-21T00:46:46;96073.06;;;12.78;62.36
20971;BME280;10644;48.834;10.088;2023-11-21T00:49:11;96074.78;;;12.67;62.70
20971;BME280;10644;48.834;10.088;2023-11-21T00:51:39;96069.41;;;12.70;62.98
20971;BME280;10644;48.834;10.088;2023-11-21T00:54:04;96068.16;;;12.75;63.02
20971;BME280;10644;48.834;10.088;2023-11-21T00:56:30;96070.28;;;12.81;62.61
20971;BME280;10644;48.834;10.088;2023-11-21T00:58:55;96055.56;;;12.83;62.41
20971;BME280;10644;48.834;10.088;2023-11-21T01:01:21;96062.13;;;12.87;61.70
20971;BME280;10644;48.834;10.088;2023-11-21T01:03:52;96064.91;;;12.84;61.53
20971;BME280;10644;48.834;10.088;2023-11-21T01:06:19;96063.81;;;12.76;61.71
20971;BME280;10644;48.834;10.088;2023-11-21T01:08:44;96063.22;;;12.72;61.76
20971;BME280;10644;48.834;10.088;2023-11-21T01:11:11;96063.13;;;12.74;62.16
20971;BME280;10644;48.834;10.088;2023-11-21T01:13:38;96063.81;;;12.76;61.82
20971;BME280;10644;48.834;10.088;2023-11-21T01:16:04;96060.66;;;12.72;62.31
20971;BME280;10644;48.834;10.088;2023-11-21T01:18:31;96059.22;;;12.68;62.44
20971;BME280;10644;48.834;10.088;2023-11-21T01:20:57;96053.28;;;12.68;61.97
20971;BME280;10644;48.834;10.088;2023-11-21T01:23:22;96059.03;;;12.71;62.19
20971;BME280;10644;48.834;10.088;2023-11-21T01:25:48;96056.94;;;12.76;62.51
20971;BME280;10644;48.834;10.088;2023-11-21T01:28:13;96052.63;;;12.77;62.02
20971;BME280;10644;48.834;10.088;2023-11-21T01:30:40;96058.59;;;12.77;61.67
20971;BME280;10644;48.834;10.088;2023-11-21T01:33:07;96054.38;;;12.76;62.07
20971;BME280;10644;48.834;10.088;2023-11-21T01:35:33;96052.31;;;12.81;62.58
20971;BME280;10644;48.834;10.088;2023-11-21T01:37:59;96056.16;;;12.87;62.61
20971;BME280;10644;48.834;10.088;2023-11-21T01:40:24;96060.25;;;12.89;62.50
20971;BME280;10644;48.834;10.088;2023-11-21T01:42:53;96054.41;;;12.87;62.34
20971;BME280;10644;48.834;10.088;2023-11-21T01:45:20;96050.44;;;12.83;62.30
20971;BME280;10644;48.834;10.088;2023-11-21T01:47:46;96057.75;;;12.66;63.17
20971;BME280;10644;48.834;10.088;2023-11-21T01:50:16;96059.28;;;12.45;63.73
20971;BME280;10644;48.834;10.088;2023-11-21T01:52:44;96063.00;;;12.28;64.15
20971;BME280;10644;48.834;10.088;2023-11-21T01:55:10;96049.28;;;12.29;64.25
20971;BME280;10644;48.834;10.088;2023-11-21T01:57:36;96053.34;;;12.32;64.46
20971;BME280;10644;48.834;10.088;2023-11-21T02:00:05;96058.88;;;12.38;64.31
20971;BME280;10644;48.834;10.088;2023-11-21T02:02:45;96060.47;;;12.52;64.13
20971;BME280;10644;48.834;10.088;2023-11-21T02:05:12;96052.91;;;12.61;63.77
20971;BME280;10644;48.834;10.088;2023-11-21T02:07:42;96047.13;;;12.70;64.01
20971;BME280;10644;48.834;10.088;2023-11-21T02:10:10;96052.50;;;12.78;63.61
20971;BME280;10644;48.834;10.088;2023-11-21T02:12:40;96058.63;;;12.88;63.80
20971;BME280;10644;48.834;10.088;2023-11-21T02:15:08;96051.53;;;12.68;63.59
20971;BME280;10644;48.834;10.088;2023-11-21T02:17:42;96059.28;;;12.45;64.45
20971;BME280;10644;48.834;10.088;2023-11-21T02:20:13;96059.44;;;12.54;64.95
20971;BME280;10644;48.834;10.088;2023-11-21T02:22:43;96056.22;;;12.63;63.71
20971;BME280;10644;48.834;10.088;2023-11-21T02:25:10;96058.53;;;12.66;63.97
20971;BME280;10644;48.834;10.088;2023-11-21T02:27:36;96060.78;;;12.71;63.97
20971;BME280;10644;48.834;10.088;2023-11-21T02:30:03;96054.09;;;12.68;63.75
20971;BME280;10644;48.834;10.088;2023-11-21T02:32:29;96059.97;;;12.70;63.53
20971;BME280;10644;48.834;10.088;2023-11-21T02:34:58;96055.03;;;12.67;64.04
20971;BME280;10644;48.834;10.088;2023-11-21T02:37:26;96050.63;;;12.69;64.41
20971;BME280;10644;48.834;10.088;2023-11-21T02:39:52;96057.06;;;12.75;64.42
20971;BME280;10644;48.834;10.088;2023-11-21T02:42:19;96037.78;;;12.69;64.39
20971;BME280;10644;48.834;10.088;2023-11-21T02:44:45;96043.63;;;12.71;64.35
20971;BME280;10644;48.834;10.088;2023-11-21T02:47:10;96039.16;;;12.73;64.45
20971;BME280;10644;48.834;10.088;2023-11-21T02:49:35;96051.53;;;12.68;64.61
20971;BME280;10644;48.834;10.088;2023-11-21T02:52:01;96050.63;;;12.69;65.02
20971;BME280;10644;48.834;10.088;2023-11-21T02:54:26;96040.22;;;12.71;64.66
20971;BME280;10644;48.834;10.088;2023-11-21T02:56:52;96044.06;;;12.65;64.95
20971;BME280;10644;48.834;10.088;2023-11-21T02:59:17;96046.25;;;12.59;64.99
20971;BME280;10644;48.834;10.088;2023-11-21T03:01:44;96041.69;;;12.62;65.47
20971;BME280;10644;48.834;10.088;2023-11-21T03:04:12;96036.78;;;12.59;65.12
20971;BME280;10644;48.834;10.088;2023-11-21T03:06:43;96048.72;;;12.60;65.01
20971;BME280;10644;48.834;10.088;2023-11-21T03:09:09;96040.06;;;12.61;65.54
20971;BME280;10644;48.834;10.088;2023-11-21T03:11:34;96042.63;;;12.61;65.08
20971;BME280;10644;48.834;10.088;2023-11-21T03:13:59;96046.84;;;12.62;65.25
20971;BME280;10644;48.834;10.088;2023-11-21T03:16:25;96046.63;;;12.65;65.31
20971;BME280;10644;48.834;10.088;2023-11-21T03:18:51;96029.34;;;12.67;65.45
20971;BME280;10644;48.834;10.088;2023-11-21T03:21:17;96034.94;;;12.61;65.63
20971;BME280;10644;48.834;10.088;2023-11-21T03:23:42;96042.03;;;12.58;65.60
20971;BME280;10644;48.834;10.088;2023-11-21T03:26:12;96045.31;;;12.60;65.34
20971;BME280;10644;48.834;10.088;2023-11-21T03:28:37;96041.09;;;12.59;65.79
20971;BME280;10644;48.834;10.088;2023-11-21T03:31:03;96038.31;;;12.62;65.33
20971;BME280;10644;48.834;10.088;2023-11-21T03:33:28;96051.66;;;12.43;66.14
20971;BME280;10644;48.834;10.088;2023-11-21T03:35:56;96039.53;;;12.45;65.98
20971;BME280;10644;48.834;10.088;2023-11-21T03:38:23;96039.69;;;12.31;66.28
20971;BME280;10644;48.834;10.088;2023-11-21T03:40:49;96037.34;;;12.28;66.20
20971;BME280;10644;48.834;10.088;2023-11-21T03:43:15;96041.28;;;12.21;66.98
20971;BME280;10644;48.834;10.088;2023-11-21T03:45:41;96030.81;;;12.24;66.81
20971;BME280;10644;48.834;10.088;2023-11-21T03:48:07;96034.06;;;12.26;66.72
20971;BME280;10644;48.834;10.088;2023-11-21T03:50:32;96035.91;;;12.01;67.35
20971;BME280;10644;48.834;10.088;2023-11-21T03:52:58;96034.53;;;11.84;68.72
20971;BME280;10644;48.834;10.088;2023-11-21T03:55:23;96046.69;;;11.93;68.31
20971;BME280;10644;48.834;10.088;2023-11-21T03:57:50;96040.22;;;12.00;68.24
20971;BME280;10644;48.834;10.088;2023-11-21T04:00:16;96039.78;;;12.06;67.35
20971;BME280;10644;48.834;10.088;2023-11-21T04:02:42;96042.41;;;12.17;67.41
20971;BME280;10644;48.834;10.088;2023-11-21T04:05:07;96043.34;;;12.16;67.24
20971;BME280;10644;48.834;10.088;2023-11-21T04:07:34;96039.31;;;12.25;66.76
20971;BME280;10644;48.834;10.088;2023-11-21T04:09:59;96049.28;;;12.29;66.55
20971;BME280;10644;48.834;10.088;2023-11-21T04:12:27;96045.84;;;12.41;66.75
20971;BME280;10644;48.834;10.088;2023-11-21T04:14:52;96043.47;;;12.38;66.46
20971;BME280;10644;48.834;10.088;2023-11-21T04:17:18;96050.63;;;12.46;66.67
20971;BME280;10644;48.834;10.088;2023-11-21T04:19:44;96056.16;;;12.52;66.20
20971;BME280;10644;48.834;10.088;2023-11-21T04:22:11;96062.50;;;12.59;66.35
20971;BME280;10644;48.834;10.088;2023-11-21T04:24:36;96055.28;;;12.64;66.01
20971;BME280;10644;48.834;10.088;2023-11-21T04:27:02;96052.09;;;12.61;66.36
20971;BME280;10644;48.834;10.088;2023-11-21T04:29:28;96055.28;;;12.64;66.19
20971;BME280;10644;48.834;10.088;2023-11-21T04:31:53;96054.59;;;12.73;66.16
20971;BME280;10644;48.834;10.088;2023-11-21T04:34:19;96051.91;;;12.75;66.02
20971;BME280;10644;48.834;10.088;2023-11-21T04:36:45;96058.47;;;12.79;66.17
20971;BME280;10644;48.834;10.088;2023-11-21T04:39:13;96063.28;;;12.83;65.77
20971;BME280;10644;48.834;10.088;2023-11-21T04:41:39;96056.50;;;12.82;66.36
20971;BME280;10644;48.834;10.088;2023-11-21T04:44:05;96071.59;;;12.87;65.79
20971;BME280;10644;48.834;10.088;2023-11-21T04:46:31;96070.78;;;12.86;65.73
20971;BME280;10644;48.834;10.088;2023-11-21T04:48:57;96069.84;;;12.87;66.20
20971;BME280;10644;48.834;10.088;2023-11-21T04:51:22;96070.53;;;12.89;66.14
20971;BME280;10644;48.834;10.088;2023-11-21T04:53:47;96073.09;;;12.89;65.98
20971;BME280;10644;48.834;10.088;2023-11-21T04:56:13;96065.41;;;12.89;65.81
20971;BME280;10644;48.834;10.088;2023-11-21T04:58:38;96073.59;;;12.94;65.90
20971;BME280;10644;48.834;10.088;2023-11-21T05:01:05;96064.94;;;12.95;65.93
20971;BME280;10644;48.834;10.088;2023-11-21T05:03:31;96073.59;;;12.94;65.70
20971;BME280;10644;48.834;10.088;2023-11-21T05:05:57;96073.84;;;12.68;66.41
20971;BME280;10644;48.834;10.088;2023-11-21T05:08:22;96071.44;;;12.54;66.79
20971;BME280;10644;48.834;10.088;2023-11-21T05:10:48;96075.63;;;12.44;67.29
20971;BME280;10644;48.834;10.088;2023-11-21T05:13:14;96073.84;;;12.44;67.24
20971;BME280;10644;48.834;10.088;2023-11-21T05:15:43;96076.66;;;12.41;67.47
20971;BME280;10644;48.834;10.088;2023-11-21T05:18:09;96071.78;;;12.49;67.48
20971;BME280;10644;48.834;10.088;2023-11-21T05:20:35;96078.50;;;12.39;68.27
20971;BME280;10644;48.834;10.088;2023-11-21T05:23:03;96091.88;;;12.55;67.75
20971;BME280;10644;48.834;10.088;2023-11-21T05:25:28;96084.22;;;12.66;67.40
20971;BME280;10644;48.834;10.088;2023-11-21T05:27:54;96090.47;;;12.75;66.73
20971;BME280;10644;48.834;10.088;2023-11-21T05:30:26;96090.25;;;12.78;66.97
20971;BME280;10644;48.834;10.088;2023-11-21T05:32:51;96096.69;;;12.83;66.94
20971;BME280;10644;48.834;10.088;2023-11-21T05:35:17;96095.69;;;12.73;66.46
20971;BME280;10644;48.834;10.088;2023-11-21T05:37:43;96097.38;;;12.74;66.66
20971;BME280;10644;48.834;10.088;2023-11-21T05:40:08;96099.59;;;12.79;66.67
20971;BME280;10644;48.834;10.088;2023-11-21T05:42:35;96104.41;;;12.83;66.98
20971;BME280;10644;48.834;10.088;2023-11-21T05:45:01;96096.00;;;12.81;66.51
20971;BME280;10644;48.834;10.088;2023-11-21T05:47:40;96105.34;;;12.82;66.52
20971;BME280;10644;48.834;10.088;2023-11-21T05:50:06;96093.63;;;12.78;66.59
20971;BME280;10644;48.834;10.088;2023-11-21T05:52:35;96101.03;;;12.83;66.55
20971;BME280;10644;48.834;10.088;2023-11-21T05:55:01;96106.03;;;12.84;66.47
20971;BME280;10644;48.834;10.088;2023-11-21T05:57:26;96106.75;;;12.86;66.65
20971;BME280;10644;48.834;10.088;2023-11-21T05:59:51;96100.69;;;12.87;66.35
20971;BME280;10644;48.834;10.088;2023-11-21T06:02:19;96109.00;;;12.91;66.68
20971;BME280;10644;48.834;10.088;2023-11-21T06:04:45;96104.44;;;12.94;66.14
20971;BME280;10644;48.834;10.088;2023-11-21T06:07:10;96111.03;;;12.98;66.07
20971;BME280;10644;48.834;10.088;2023-11-21T06:09:37;96118.53;;;13.01;65.93
20971;BME280;10644;48.834;10.088;2023-11-21T06:12:02;96108.97;;;13.03;66.08
20971;BME280;10644;48.834;10.088;2023-11-21T06:14:29;96114.81;;;13.05;66.33
20971;BME280;10644;48.834;10.088;2023-11-21T06:16:54;96120.63;;;13.07;66.24
20971;BME280;10644;48.834;10.088;2023-11-21T06:19:24;96117.59;;;13.02;66.60
20971;BME280;10644;48.834;10.088;2023-11-21T06:21:49;96121.09;;;13.01;66.21
20971;BME280;10644;48.834;10.088;2023-11-21T06:24:14;96121.91;;;13.02;66.03
20971;BME280;10644;48.834;10.088;2023-11-21T06:26:42;96114.41;;;12.99;65.97
20971;BME280;10644;48.834;10.088;2023-11-21T06:29:18;96125.44;;;13.01;66.00
20971;BME280;10644;48.834;10.088;2023-11-21T06:31:45;96130.94;;;13.07;65.96
20971;BME280;10644;48.834;10.088;2023-11-21T06:34:13;96124.00;;;12.97;66.07
20971;BME280;10644;48.834;10.088;2023-11-21T06:36:47;96136.44;;;12.90;66.26
20971;BME280;10644;48.834;10.088;2023-11-21T06:39:12;96131.31;;;12.67;66.62
20971;BME280;10644;48.834;10.088;2023-11-21T06:41:43;96133.75;;;12.68;66.58
20971;BME280;10644;48.834;10.088;2023-11-21T06:44:16;96134.19;;;12.62;66.54
20971;BME280;10644;48.834;10.088;2023-11-21T06:46:41;96144.25;;;12.65;66.92
20971;BME280;10644;48.834;10.088;2023-11-21T06:49:17;96134.19;;;12.62;66.59
20971;BME280;10644;48.834;10.088;2023-11-21T06:51:47;96137.09;;;12.58;67.12
20971;BME280;10644;48.834;10.088;2023-11-21T06:54:15;96134.19;;;12.39;67.61
20971;BME280;10644;48.834;10.088;2023-11-21T06:56:40;96141.47;;;12.45;68.05
20971;BME280;10644;48.834;10.088;2023-11-21T06:59:08;96136.94;;;12.48;67.57
20971;BME280;10644;48.834;10.088;2023-11-21T07:01:41;96157.72;;;12.69;66.90
20971;BME280;10644;48.834;10.088;2023-11-21T07:04:21;96155.97;;;12.69;66.85
20971;BME280;10644;48.834;10.088;2023-11-21T07:06:47;96160.09;;;12.72;67.30
20971;BME280;10644;48.834;10.088;2023-11-21T07:09:14;96161.47;;;12.76;66.97
20971;BME280;10644;48.834;10.088;2023-11-21T07:11:42;96163.75;;;12.80;67.20
20971;BME280;10644;48.834;10.088;2023-11-21T07:14:07;96183.53;;;12.91;66.72
20971;BME280;10644;48.834;10.088;2023-11-21T07:16:37;96174.03;;;12.80;67.19
20971;BME280;10644;48.834;10.088;2023-11-21T07:19:06;96180.13;;;12.90;66.91
20971;BME280;10644;48.834;10.088;2023-11-21T07:21:32;96176.53;;;12.93;66.62
20971;BME280;10644;48.834;10.088;2023-11-21T07:23:58;96175.41;;;12.97;66.38
20971;BME280;10644;48.834;10.088;2023-11-21T07:26:27;96174.16;;;13.02;66.69
20971;BME280;10644;48.834;10.088;2023-11-21T07:28:52;96184.88;;;12.96;66.29
20971;BME280;10644;48.834;10.088;2023-11-21T07:31:18;96184.13;;;12.94;66.34
20971;BME280;10644;48.834;10.088;2023-11-21T07:33:46;96188.78;;;12.89;66.96
20971;BME280;10644;48.834;10.088;2023-11-21T07:36:19;96192.22;;;12.77;66.59
20971;BME280;10644;48.834;10.088;2023-11-21T07:38:47;96197.09;;;12.69;67.23
20971;BME280;10644;48.834;10.088;2023-11-21T07:41:22;96215.63;;;12.85;67.13
20971;BME280;10644;48.834;10.088;2023-11-21T07:43:50;96202.41;;;12.79;66.87
20971;BME280;10644;48.834;10.088;2023-11-21T07:46:15;96204.63;;;12.83;66.54
20971;BME280;10644;48.834;10.088;2023-11-21T07:48:43;96195.19;;;12.84;66.73
20971;BME280;10644;48.834;10.088;2023-11-21T07:51:09;96203.41;;;12.89;66.53
20971;BME280;10644;48.834;10.088;2023-11-21T07:53:44;96198.81;;;12.69;66.45
20971;BME280;10644;48.834;10.088;2023-11-21T07:56:11;96198.72;;;12.70;67.19
20971;BME280;10644;48.834;10.088;2023-11-21T07:58:38;96189.97;;;12.73;66.98
20971;BME280;10644;48.834;10.088;2023-11-21T08:01:03;96208.63;;;12.87;66.76
20971;BME280;10644;48.834;10.088;2023-11-21T08:03:29;96209.78;;;12.83;67.55
20971;BME280;10644;48.834;10.088;2023-11-21T08:05:58;96201.19;;;12.72;67.97
20971;BME280;10644;48.834;10.088;2023-11-21T08:08:25;96208.22;;;12.57;68.29
20971;BME280;10644;48.834;10.088;2023-11-21T08:10:50;96215.19;;;12.55;68.29
20971;BME280;10644;48.834;10.088;2023-11-21T08:13:25;96206.88;;;12.64;68.25
20971;BME280;10644;48.834;10.088;2023-11-21T08:15:54;96209.59;;;12.74;67.43
20971;BME280;10644;48.834;10.088;2023-11-21T08:18:19;96210.00;;;12.80;67.48
20971;BME280;10644;48.834;10.088;2023-11-21T08:20:48;96211.31;;;12.86;67.43
20971;BME280;10644;48.834;10.088;2023-11-21T08:23:17;96214.75;;;12.74;68.03
20971;BME280;10644;48.834;10.088;2023-11-21T08:25:45;96223.41;;;12.60;68.40
20971;BME280;10644;48.834;10.088;2023-11-21T08:28:11;96230.41;;;12.58;68.64
20971;BME280;10644;48.834;10.088;2023-11-21T08:30:37;96221.78;;;12.47;68.68
20971;BME280;10644;48.834;10.088;2023-11-21T08:33:05;96225.88;;;12.62;68.35
20971;BME280;10644;48.834;10.088;2023-11-21T08:35:31;96224.41;;;12.70;67.99
20971;BME280;10644;48.834;10.088;2023-11-21T08:37:56;96233.13;;;12.80;67.67
20971;BME280;10644;48.834;10.088;2023-11-21T08:40:22;96233.97;;;12.68;67.77
20971;BME280;10644;48.834;10.088;2023-11-21T08:42:47;96243.13;;;12.72;67.71
20971;BME280;10644;48.834;10.088;2023-11-21T08:45:14;96236.34;;;12.71;68.02
20971;BME280;10644;48.834;10.088;2023-11-21T08:47:40;96243.94;;;12.73;68.30
20971;BME280;10644;48.834;10.088;2023-11-21T08:50:06;96239.53;;;12.62;68.57
20971;BME280;10644;48.834;10.088;2023-11-21T08:52:35;96243.34;;;12.69;68.82
20971;BME280;10644;48.834;10.088;2023-11-21T08:55:02;96235.31;;;12.61;69.14
20971;BME280;10644;48.834;10.088;2023-11-21T08:57:35;96234.19;;;12.65;68.82
20971;BME280;10644;48.834;10.088;2023-11-21T09:00:05;96242.91;;;12.75;68.40
20971;BME280;10644;48.834;10.088;2023-11-21T09:02:36;96239.94;;;12.69;68.35
20971;BME280;10644;48.834;10.088;2023-11-21T09:05:10;96250.75;;;12.61;68.49
20971;BME280;10644;48.834;10.088;2023-11-21T09:07:36;96253.47;;;12.83;67.88
20971;BME280;10644;48.834;10.088;2023-11-21T09:10:11;96263.25;;;12.78;67.88
20971;BME280;10644;48.834;10.088;2023-11-21T09:12:37;96258.59;;;12.83;67.29
20971;BME280;10644;48.834;10.088;2023-11-21T09:15:08;96255.47;;;12.67;67.99
20971;BME280;10644;48.834;10.088;2023-11-21T09:17:38;96252.88;;;12.67;68.79
20971;BME280;10644;48.834;10.088;2023-11-21T09:20:05;96245.50;;;12.63;68.78
20971;BME280;10644;48.834;10.088;2023-11-21T09:22:34;96252.53;;;12.84;68.58
20971;BME280;10644;48.834;10.088;2023-11-21T09:24:59;96244.75;;;12.73;67.89
20971;BME280;10644;48.834;10.088;2023-11-21T09:27:24;96253.19;;;12.75;67.95
20971;BME280;10644;48.834;10.088;2023-11-21T09:29:51;96258.97;;;12.66;68.30
20971;BME280;10644;48.834;10.088;2023-11-21T09:32:18;96264.47;;;12.85;68.48
20971;BME280;10644;48.834;10.088;2023-11-21T09:34:46;96265.53;;;12.70;68.55
20971;BME280;10644;48.834;10.088;2023-11-21T09:37:11;96257.94;;;12.69;67.95
20971;BME280;10644;48.834;10.088;2023-11-21T09:39:37;96269.66;;;12.73;67.88
20971;BME280;10644;48.834;10.088;2023-11-21T09:42:12;96275.59;;;12.73;68.03
20971;BME280;10644;48.834;10.088;2023-11-21T09:47:29;96277.09;;;12.52;68.51
20971;BME280;10644;48.834;10.088;2023-11-21T09:49:59;96273.47;;;12.55;68.79
20971;BME280;10644;48.834;10.088;2023-11-21T09:52:27;96287.88;;;12.57;68.98
20971;BME280;10644;48.834;10.088;2023-11-21T09:54:58;96281.38;;;12.64;68.06
20971;BME280;10644;48.834;10.088;2023-11-21T09:57:29;96284.75;;;12.65;68.06
20971;BME280;10644;48.834;10.088;2023-11-21T09:59:55;96277.03;;;12.77;67.47
20971;BME280;10644;48.834;10.088;2023-11-21T10:02:25;96280.81;;;12.84;67.95
20971;BME280;10644;48.834;10.088;2023-11-21T10:04:53;96272.72;;;12.78;67.86
20971;BME280;10644;48.834;10.088;2023-11-21T10:07:20;96280.63;;;13.00;67.54
20971;BME280;10644;48.834;10.088;2023-11-21T10:09:46;96275.94;;;13.05;67.19
20971;BME280;10644;48.834;10.088;2023-11-21T10:12:17;96286.25;;;12.92;67.17
20971;BME280;10644;48.834;10.088;2023-11-21T10:14:48;96285.63;;;13.01;66.78
20971;BME280;10644;48.834;10.088;2023-11-21T10:17:14;96280.88;;;12.95;66.33
20971;BME280;10644;48.834;10.088;2023-11-21T10:19:49;96274.09;;;12.94;66.65
20971;BME280;10644;48.834;10.088;2023-11-21T10:22:25;96272.69;;;13.03;65.66
20971;BME280;10644;48.834;10.088;2023-11-21T10:24:53;96276.97;;;13.02;66.14
20971;BME280;10644;48.834;10.088;2023-11-21T10:27:39;96260.66;;;12.91;66.45
20971;BME280;10644;48.834;10.088;2023-11-21T10:30:12;96274.34;;;12.91;66.06
20971;BME280;10644;48.834;10.088;2023-11-21T10:33:00;96278.66;;;12.91;66.42
20971;BME280;10644;48.834;10.088;2023-11-21T10:35:39;96274.94;;;12.95;66.10
20971;BME280;10644;48.834;10.088;2023-11-21T10:38:06;96280.31;;;12.79;65.69
20971;BME280;10644;48.834;10.088;2023-11-21T10:40:40;96296.16;;;12.98;65.83
20971;BME280;10644;48.834;10.088;2023-11-21T10:43:13;96295.09;;;12.88;65.59
20971;BME280;10644;48.834;10.088;2023-11-21T10:45:44;96289.13;;;12.88;65.45
20971;BME280;10644;48.834;10.088;2023-11-21T10:48:12;96291.50;;;12.78;65.78
20971;BME280;10644;48.834;10.088;2023-11-21T10:50:43;96288.94;;;12.78;66.17
20971;BME280;10644;48.834;10.088;2023-11-21T10:53:09;96293.28;;;12.65;66.23
20971;BME280;10644;48.834;10.088;2023-11-21T10:55:37;96284.66;;;12.66;64.96
20971;BME280;10644;48.834;10.088;2023-11-21T10:58:05;96286.81;;;12.72;64.95
20971;BME280;10644;48.834;10.088;2023-11-21T11:00:43;96291.94;;;12.85;65.44
20971;BME280;10644;48.834;10.088;2023-11-21T11:03:16;96282.75;;;12.93;65.38
20971;BME280;10644;48.834;10.088;2023-11-21T11:05:51;96272.75;;;13.14;64.99
20971;BME280;10644;48.834;10.088;2023-11-21T11:08:28;96279.81;;;13.23;64.59
20971;BME280;10644;48.834;10.088;2023-11-21T11:10:59;96270.13;;;13.26;nan
20971;BME280;10644;48.834;10.088;2023-11-21T11:13:24;96277.47;;;13.43;63.29
20971;BME280;10644;48.834;10.088;2023-11-21T11:15:51;96273.63;;;13.25;64.07
20971;BME280;10644;48.834;10.088;2023-11-21T11:18:26;96277.84;;;13.26;63.90
20971;BME280;10644;48.834;10.088;2023-11-21T11:20:56;96277.78;;;13.38;63.85
20971;BME280;10644;48.834;10.088;2023-11-21T11:32:09;96265.75;;;13.39;63.87
20971;BME280;10644;48.834;10.088;2023-11-21T11:34:50;96273.50;;;13.50;63.65
20971;BME280;10644;48.834;10.088;2023-11-21T11:37:19;96268.63;;;13.58;63.43
20971;BME280;10644;48.834;10.088;2023-11-21T11:39:45;96276.78;;;13.52;63.02
20971;BME280;10644;48.834;10.088;2023-11-21T11:42:16;96273.25;;;13.42;63.60
20971;BME280;10644;48.834;10.088;2023-11-21T11:52:46;96276.50;;;13.21;64.56
20971;BME280;10644;48.834;10.088;2023-11-21T11:55:16;96288.44;;;12.98;65.02
20971;BME280;10644;48.834;10.088;2023-11-21T11:57:51;96284.63;;;12.91;64.91
20971;BME280;10644;48.834;10.088;2023-11-21T12:02:56;96285.06;;;13.21;64.04
20971;BME280;10644;48.834;10.088;2023-11-21T12:05:27;96281.81;;;13.30;63.78
20971;BME280;10644;48.834;10.088;2023-11-21T12:07:54;96281.63;;;13.33;64.03
20971;BME280;10644;48.834;10.088;2023-11-21T12:10:44;96283.16;;;13.36;63.82
20971;BME280;10644;48.834;10.088;2023-11-21T12:13:10;96280.84;;;13.43;63.01
20971;BME280;10644;48.834;10.088;2023-11-21T12:15:37;96280.09;;;13.54;63.57
20971;BME280;10644;48.834;10.088;2023-11-21T12:18:04;96281.72;;;13.55;63.44
20971;BME280;10644;48.834;10.088;2023-11-21T12:20:30;96281.69;;;13.44;64.00
20971;BME280;10644;48.834;10.088;2023-11-21T12:22:58;96279.97;;;13.32;63.84
20971;BME280;10644;48.834;10.088;2023-11-21T12:25:30;96285.78;;;13.23;64.47
20971;BME280;10644;48.834;10.088;2023-11-21T12:27:59;96285.13;;;13.32;64.74
20971;BME280;10644;48.834;10.088;2023-11-21T12:30:27;96288.84;;;13.28;64.67
20971;BME280;10644;48.834;10.088;2023-11-21T12:33:03;96294.66;;;13.19;nan
20971;BME280;10644;48.834;10.088;2023-11-21T12:35:31;96289.00;;;13.14;64.75
20971;BME280;10644;48.834;10.088;2023-11-21T12:37:59;96298.34;;;13.15;64.77
20971;BME280;10644;48.834;10.088;2023-11-21T12:40:26;96296.50;;;13.17;64.63
20971;BME280;10644;48.834;10.088;2023-11-21T12:42:56;96293.22;;;13.15;64.58
20971;BME280;10644;48.834;10.088;2023-11-21T12:45:36;96305.47;;;13.35;64.53
20971;BME280;10644;48.834;10.088;2023-11-21T12:48:05;96304.13;;;13.42;64.57
20971;BME280;10644;48.834;10.088;2023-11-21T12:50:37;96306.03;;;13.51;64.64
20971;BME280;10644;48.834;10.088;2023-11-21T12:53:07;96307.59;;;13.41;67.90
20971;BME280;10644;48.834;10.088;2023-11-21T12:55:43;96303.84;;;13.34;69.11
20971;BME280;10644;48.834;10.088;2023-11-21T12:58:15;96311.84;;;13.42;67.06
20971;BME280;10644;48.834;10.088;2023-11-21T13:00:46;96305.03;;;13.41;66.37
20971;BME280;10644;48.834;10.088;2023-11-21T13:03:20;96306.75;;;13.53;65.48
20971;BME280;10644;48.834;10.088;2023-11-21T13:05:53;96314.03;;;13.59;65.66
20971;BME280;10644;48.834;10.088;2023-11-21T13:08:22;96303.25;;;13.54;65.53
20971;BME280;10644;48.834;10.088;2023-11-21T13:10:51;96303.41;;;13.63;65.41
20971;BME280;10644;48.834;10.088;2023-11-21T13:13:21;96309.66;;;13.72;65.12
20971;BME280;10644;48.834;10.088;2023-11-21T13:15:56;96323.84;;;13.88;65.40